createdAt,value
2017-03-14T19:34:14.887Z,1023.34
2017-03-14T19:35:24.828Z,1023.33
2017-03-14T19:36:35.083Z,1023.39
2017-03-14T19:37:44.712Z,1023.47
2017-03-14T19:38:54.963Z,1023.36
2017-03-14T19:40:04.587Z,1023.35
2017-03-14T19:41:14.843Z,1023.34
2017-03-14T19:42:24.469Z,1023.31
2017-03-14T19:43:33.772Z,1023.25
2017-03-14T19:44:43.704Z,1023.2
2017-03-14T19:45:53.948Z,1023.23
2017-03-14T19:47:03.885Z,1023.19
2017-03-14T19:48:13.505Z,1023.15
2017-03-14T19:49:23.759Z,1023.18
2017-03-14T19:50:34.017Z,1023.2
2017-03-14T19:51:43.958Z,1023.19
2017-03-14T19:52:53.281Z,1023.09
2017-03-14T19:54:03.531Z,1023.1
2017-03-14T19:55:13.158Z,1023.11
2017-03-14T19:56:23.099Z,1023.14
2017-03-14T19:57:33.344Z,1023.16
2017-03-14T19:58:43.279Z,1023.13
2017-03-14T19:59:53.224Z,1023.12
2017-03-14T20:01:03.477Z,1023.21
2017-03-14T20:02:13.416Z,1023.21
2017-03-14T20:03:23.677Z,1023.21
2017-03-14T20:04:33.612Z,1023.2
2017-03-14T20:05:42.925Z,1023.15
2017-03-14T20:06:52.864Z,1023.04
2017-03-14T20:08:03.107Z,1023.06
2017-03-14T20:09:13.063Z,1023.06
2017-03-14T20:10:23.313Z,1023.13
2017-03-14T20:11:33.248Z,1023.05
2017-03-14T20:12:42.877Z,1023.05
2017-03-14T20:13:52.196Z,1023.08
2017-03-14T20:15:02.451Z,1023.1
2017-03-14T20:16:12.385Z,1023.12
2017-03-14T20:17:22.326Z,1023.11
2017-03-14T20:18:32.577Z,1023.13
2017-03-14T20:19:42.517Z,1023.15
2017-03-14T20:20:52.779Z,1023.19
2017-03-14T20:22:03.035Z,1023.2
2017-03-14T20:23:12.967Z,1023.14
2017-03-14T20:24:22.921Z,1023.12
2017-03-14T20:25:33.190Z,1023.13
2017-03-14T20:26:43.125Z,1023.11
2017-03-14T20:27:53.066Z,1023.11
2017-03-14T20:29:03.001Z,1023.1
2017-03-14T20:30:12.930Z,1023.11
2017-03-14T20:31:22.551Z,1023.18
2017-03-14T20:32:32.487Z,1023.15
2017-03-14T20:33:42.737Z,1023.12
2017-03-14T20:34:52.676Z,1023.12
2017-03-14T20:36:02.607Z,1023.07
2017-03-14T20:37:12.231Z,1023.08
2017-03-14T20:38:22.481Z,1023.08
2017-03-14T20:39:32.418Z,1023.12
2017-03-14T20:40:42.355Z,1023.07
2017-03-14T20:41:52.301Z,1023.07
2017-03-14T20:43:02.552Z,1023.1
2017-03-14T20:44:12.804Z,1023.1
2017-03-14T20:45:22.738Z,1023.1
2017-03-14T20:46:32.997Z,1023.04
2017-03-14T20:47:42.932Z,1023.07
2017-03-14T20:48:53.233Z,1023.01
2017-03-14T20:50:03.476Z,1022.99
2017-03-14T20:51:13.412Z,1022.99
2017-03-14T20:52:23.654Z,1023.02
2017-03-14T20:53:33.268Z,1022.98
2017-03-14T20:54:43.210Z,1022.98
2017-03-14T20:55:53.166Z,1023.01
2017-03-14T20:57:03.418Z,1022.93
2017-03-14T20:58:13.670Z,1022.95
2017-03-14T20:59:23.602Z,1022.9
2017-03-14T21:00:33.528Z,1022.92
2017-03-14T21:01:43.770Z,1022.85
2017-03-14T21:02:53.700Z,1022.88
2017-03-14T21:04:03.944Z,1022.83
2017-03-14T21:05:13.566Z,1022.89
2017-03-14T21:06:23.816Z,1022.82
2017-03-14T21:07:33.436Z,1022.84
2017-03-14T21:08:43.374Z,1022.81
2017-03-14T21:09:52.997Z,1022.88
2017-03-14T21:11:03.269Z,1022.86
2017-03-14T21:12:12.880Z,1022.86
2017-03-14T21:13:23.129Z,1022.89
2017-03-14T21:14:33.069Z,1022.92
2017-03-14T21:15:43.325Z,1022.87
2017-03-14T21:16:53.265Z,1022.87
2017-03-14T21:18:03.200Z,1022.89
2017-03-14T21:19:12.816Z,1022.87
2017-03-14T21:20:23.056Z,1022.8
2017-03-14T21:21:33.295Z,1022.77
2017-03-14T21:22:42.936Z,1022.78
2017-03-14T21:23:53.188Z,1022.74
2017-03-14T21:25:03.118Z,1022.73
2017-03-14T21:26:12.427Z,1022.74
2017-03-14T21:27:22.050Z,1022.73
2017-03-14T21:28:32.299Z,1022.72
2017-03-14T21:29:42.544Z,1022.68
2017-03-14T21:30:52.179Z,1022.66
2017-03-14T21:32:02.431Z,1022.68
2017-03-14T21:33:12.369Z,1022.65
2017-03-14T21:34:22.319Z,1022.71
2017-03-14T21:35:31.631Z,1022.73
2017-03-14T21:36:41.574Z,1022.7
2017-03-14T21:37:51.519Z,1022.72
2017-03-14T21:39:01.767Z,1022.69
2017-03-14T21:40:12.039Z,1022.68
2017-03-14T21:41:21.664Z,1022.63
2017-03-14T21:42:31.911Z,1022.63
2017-03-14T21:43:41.848Z,1022.58
2017-03-14T21:44:51.777Z,1022.56
2017-03-14T21:46:02.023Z,1022.56
2017-03-14T21:47:12.308Z,1022.54
2017-03-14T21:48:22.552Z,1022.47
2017-03-14T21:49:32.179Z,1022.37
2017-03-14T21:50:42.435Z,1022.31
2017-03-14T21:51:52.682Z,1022.3
2017-03-14T21:53:02.960Z,1022.36
2017-03-14T21:54:12.583Z,1022.25
2017-03-14T21:55:22.538Z,1022.23
2017-03-14T21:56:32.491Z,1022.2
2017-03-14T21:57:42.436Z,1022.18
2017-03-14T21:58:52.377Z,1022.14
2017-03-14T22:00:02.622Z,1022.2
2017-03-14T22:01:12.558Z,1022.33
2017-03-14T22:02:22.181Z,1022.36
2017-03-14T22:03:32.439Z,1022.4
2017-03-14T22:04:42.373Z,1022.48
2017-03-14T22:05:52.625Z,1022.48
2017-03-14T22:07:02.566Z,1022.59
2017-03-14T22:08:12.810Z,1022.65
2017-03-14T22:09:22.447Z,1022.6
2017-03-14T22:10:32.070Z,1022.57
2017-03-14T22:11:42.322Z,1022.53
2017-03-14T22:12:52.576Z,1022.5
2017-03-14T22:14:02.516Z,1022.52
2017-03-14T22:15:12.766Z,1022.48
2017-03-14T22:16:23.009Z,1022.42
2017-03-14T22:17:33.254Z,1022.41
2017-03-14T22:18:43.497Z,1022.42
2017-03-14T22:19:53.425Z,1022.44
2017-03-14T22:21:03.052Z,1022.39
2017-03-14T22:22:13.005Z,1022.36
2017-03-14T22:23:22.632Z,1022.38
2017-03-14T22:24:32.570Z,1022.31
2017-03-14T22:25:42.819Z,1022.32
2017-03-14T22:26:53.077Z,1022.35
2017-03-14T22:28:03.008Z,1022.34
2017-03-14T22:29:13.264Z,1022.32
2017-03-14T22:30:22.885Z,1022.35
2017-03-14T22:31:33.135Z,1022.22
2017-03-14T22:32:43.072Z,1022.28
2017-03-14T22:33:53.005Z,1022.28
2017-03-14T22:35:03.268Z,1022.23
2017-03-14T22:36:13.201Z,1022.19
2017-03-14T22:37:23.456Z,1022.31
2017-03-14T22:38:33.711Z,1022.24
2017-03-14T22:39:43.964Z,1022.2
2017-03-14T22:40:53.588Z,1022.2
2017-03-14T22:42:03.843Z,1022.17
2017-03-14T22:43:14.092Z,1022.14
2017-03-14T22:44:24.333Z,1022.19
2017-03-14T22:45:34.588Z,1022.06
2017-03-14T22:46:44.523Z,1022.13
2017-03-14T22:47:54.770Z,1022.1
2017-03-14T22:49:04.714Z,1022.13
2017-03-14T22:50:14.647Z,1022.14
2017-03-14T22:51:24.588Z,1022.21
2017-03-14T22:52:34.523Z,1022.22
2017-03-14T22:53:43.525Z,1022.18
2017-03-14T22:54:53.142Z,1022.15
2017-03-14T22:56:03.394Z,1022.13
2017-03-14T22:57:13.636Z,1022.13
2017-03-14T22:58:23.253Z,1022.11
2017-03-14T22:59:33.507Z,1022.15
2017-03-14T23:00:43.754Z,1022.12
2017-03-14T23:01:53.685Z,1022.13
2017-03-14T23:03:03.627Z,1022.06
2017-03-14T23:04:13.878Z,1022.06
2017-03-14T23:05:23.816Z,1022.1
2017-03-14T23:06:33.753Z,1022.11
2017-03-14T23:07:43.702Z,1022.11
2017-03-14T23:08:53.964Z,1022.12
2017-03-14T23:10:03.894Z,1022.15
2017-03-14T23:11:14.148Z,1022.09
2017-03-14T23:12:24.408Z,1022.16
2017-03-14T23:13:34.654Z,1022.14
2017-03-14T23:14:44.279Z,1022.08
2017-03-14T23:15:54.531Z,1022.09
2017-03-14T23:17:04.474Z,1022.08
2017-03-14T23:18:14.715Z,1022.06
2017-03-14T23:19:24.331Z,1022.07
2017-03-14T23:20:33.961Z,1022.1
2017-03-14T23:21:44.215Z,1022.09
2017-03-14T23:22:53.834Z,1022.05
2017-03-14T23:24:03.774Z,1022.05
2017-03-14T23:25:13.714Z,1022.01
2017-03-14T23:26:23.647Z,1022
2017-03-14T23:27:33.900Z,1021.96
2017-03-14T23:28:43.842Z,1021.99
2017-03-14T23:29:53.781Z,1021.97
2017-03-14T23:31:03.733Z,1021.97
2017-03-14T23:32:13.982Z,1021.98
2017-03-14T23:33:23.917Z,1021.92
2017-03-14T23:34:33.857Z,1021.94
2017-03-14T23:35:44.103Z,1021.93
2017-03-14T23:36:53.421Z,1021.97
2017-03-14T23:38:03.671Z,1021.97
2017-03-14T23:39:13.618Z,1021.94
2017-03-14T23:40:23.858Z,1021.95
2017-03-14T23:41:34.110Z,1021.96
2017-03-14T23:42:44.046Z,1021.91
2017-03-14T23:43:53.993Z,1021.96
2017-03-14T23:45:03.935Z,1021.96
2017-03-14T23:46:14.184Z,1021.96
2017-03-14T23:47:24.117Z,1021.95
2017-03-14T23:48:34.053Z,1021.89
2017-03-14T23:49:43.708Z,1021.93
2017-03-14T23:50:53.642Z,1021.97
2017-03-14T23:52:03.576Z,1021.95
2017-03-14T23:53:13.514Z,1021.99
2017-03-14T23:54:23.129Z,1021.92
2017-03-14T23:55:33.070Z,1021.9
2017-03-14T23:56:43.321Z,1021.86
2017-03-14T23:57:53.249Z,1021.91
2017-03-14T23:59:03.497Z,1021.82
